sensor_id;sensor_type;location;lat;lon;timestamp;temperature;humidity
12520;DHT22;6325;49.540;8.364;2022-12-07T00:01:42;5.10;99.90
12520;DHT22;6325;49.540;8.364;2022-12-07T00:04:12;5.10;99.90
12520;DHT22;6325;49.540;8.364;2022-12-07T00:06:40;5.50;99.90
12520;DHT22;6325;49.540;8.364;2022-12-07T00:09:11;5.50;99.90
12520;DHT22;6325;49.540;8.364;2022-12-07T00:11:38;5.60;99.90
12520;DHT22;6325;49.540;8.364;2022-12-07T00:14:12;5.20;99.90
12520;DHT22;6325;49.540;8.364;2022-12-07T00:16:40;5.10;99.90
12520;DHT22;6325;49.540;8.364;2022-12-07T00:19:07;4.90;99.90
12520;DHT22;6325;49.540;8.364;2022-12-07T00:21:35;4.80;99.90
12520;DHT22;6325;49.540;8.364;2022-12-07T00:24:05;5.60;99.90
12520;DHT22;6325;49.540;8.364;2022-12-07T00:26:33;4.90;99.90
12520;DHT22;6325;49.540;8.364;2022-12-07T00:29:02;5.10;99.90
12520;DHT22;6325;49.540;8.364;2022-12-07T00:31:32;5.60;99.90
12520;DHT22;6325;49.540;8.364;2022-12-07T00:34:00;5.40;99.90
12520;DHT22;6325;49.540;8.364;2022-12-07T00:36:28;5.30;99.90
12520;DHT22;6325;49.540;8.364;2022-12-07T00:38:57;5.40;99.90
12520;DHT22;6325;49.540;8.364;2022-12-07T00:41:25;5.40;99.90
12520;DHT22;6325;49.540;8.364;2022-12-07T00:43:53;5.40;99.90
12520;DHT22;6325;49.540;8.364;2022-12-07T00:46:20;5.80;99.90
12520;DHT22;6325;49.540;8.364;2022-12-07T00:48:50;5.20;99.90
12520;DHT22;6325;49.540;8.364;2022-12-07T00:51:19;5.90;99.90
12520;DHT22;6325;49.540;8.364;2022-12-07T00:53:46;5.50;99.90
12520;DHT22;6325;49.540;8.364;2022-12-07T00:56:14;5.70;99.90
12520;DHT22;6325;49.540;8.364;2022-12-07T00:58:41;5.20;99.90
12520;DHT22;6325;49.540;8.364;2022-12-07T01:01:10;5.60;99.90
12520;DHT22;6325;49.540;8.364;2022-12-07T01:03:37;5.20;99.90
12520;DHT22;6325;49.540;8.364;2022-12-07T01:06:06;5.50;99.90
12520;DHT22;6325;49.540;8.364;2022-12-07T01:08:33;5.50;99.90
12520;DHT22;6325;49.540;8.364;2022-12-07T01:11:01;4.90;99.90
12520;DHT22;6325;49.540;8.364;2022-12-07T01:13:29;5.20;99.90
12520;DHT22;6325;49.540;8.364;2022-12-07T01:15:58;5.30;99.90
12520;DHT22;6325;49.540;8.364;2022-12-07T01:18:25;5.10;99.90
12520;DHT22;6325;49.540;8.364;2022-12-07T01:21:00;5.20;99.90
12520;DHT22;6325;49.540;8.364;2022-12-07T01:23:29;5.30;99.90
12520;DHT22;6325;49.540;8.364;2022-12-07T01:25:56;4.70;99.90
12520;DHT22;6325;49.540;8.364;2022-12-07T01:28:24;5.40;99.90
12520;DHT22;6325;49.540;8.364;2022-12-07T01:30:58;5.20;99.90
12520;DHT22;6325;49.540;8.364;2022-12-07T01:33:27;5.50;99.90
12520;DHT22;6325;49.540;8.364;2022-12-07T01:35:54;5.00;99.90
12520;DHT22;6325;49.540;8.364;2022-12-07T01:38:21;5.20;99.90
12520;DHT22;6325;49.540;8.364;2022-12-07T01:40:55;5.30;99.90
12520;DHT22;6325;49.540;8.364;2022-12-07T01:43:23;5.70;99.90
12520;DHT22;6325;49.540;8.364;2022-12-07T01:45:51;5.60;99.90
12520;DHT22;6325;49.540;8.364;2022-12-07T01:48:20;5.30;99.90
12520;DHT22;6325;49.540;8.364;2022-12-07T01:50:51;5.30;99.90
12520;DHT22;6325;49.540;8.364;2022-12-07T01:53:21;5.60;99.90
12520;DHT22;6325;49.540;8.364;2022-12-07T01:55:53;5.40;99.90
12520;DHT22;6325;49.540;8.364;2022-12-07T01:58:21;5.60;99.90
12520;DHT22;6325;49.540;8.364;2022-12-07T02:00:48;5.30;99.90
12520;DHT22;6325;49.540;8.364;2022-12-07T02:03:19;5.40;99.90
12520;DHT22;6325;49.540;8.364;2022-12-07T02:05:48;5.00;99.90
12520;DHT22;6325;49.540;8.364;2022-12-07T02:08:16;5.30;99.90
12520;DHT22;6325;49.540;8.364;2022-12-07T02:10:43;5.30;99.90
12520;DHT22;6325;49.540;8.364;2022-12-07T02:13:14;5.10;99.90
12520;DHT22;6325;49.540;8.364;2022-12-07T02:15:59;5.40;99.90
12520;DHT22;6325;49.540;8.364;2022-12-07T02:18:38;4.90;99.90
12520;DHT22;6325;49.540;8.364;2022-12-07T02:21:11;6.00;99.90
12520;DHT22;6325;49.540;8.364;2022-12-07T02:23:45;5.90;99.90
12520;DHT22;6325;49.540;8.364;2022-12-07T02:26:43;5.00;99.90
12520;DHT22;6325;49.540;8.364;2022-12-07T02:29:18;5.00;99.90
12520;DHT22;6325;49.540;8.364;2022-12-07T02:31:53;4.80;99.90
12520;DHT22;6325;49.540;8.364;2022-12-07T02:34:29;4.90;99.90
12520;DHT22;6325;49.540;8.364;2022-12-07T02:37:01;4.90;99.90
12520;DHT22;6325;49.540;8.364;2022-12-07T02:39:37;4.80;99.90
12520;DHT22;6325;49.540;8.364;2022-12-07T02:42:10;4.80;99.90
12520;DHT22;6325;49.540;8.364;2022-12-07T02:44:42;5.40;99.90
12520;DHT22;6325;49.540;8.364;2022-12-07T02:47:13;4.80;99.90
12520;DHT22;6325;49.540;8.364;2022-12-07T02:49:41;5.60;99.90
12520;DHT22;6325;49.540;8.364;2022-12-07T02:52:08;5.10;99.90
12520;DHT22;6325;49.540;8.364;2022-12-07T02:54:35;4.80;99.90
12520;DHT22;6325;49.540;8.364;2022-12-07T02:57:11;4.80;99.90
12520;DHT22;6325;49.540;8.364;2022-12-07T02:59:49;4.90;99.90
12520;DHT22;6325;49.540;8.364;2022-12-07T03:02:24;5.40;99.90
12520;DHT22;6325;49.540;8.364;2022-12-07T03:05:00;5.30;99.90
12520;DHT22;6325;49.540;8.364;2022-12-07T03:07:34;5.60;99.90
12520;DHT22;6325;49.540;8.364;2022-12-07T03:10:12;5.00;99.90
12520;DHT22;6325;49.540;8.364;2022-12-07T03:12:45;5.40;99.90
12520;DHT22;6325;49.540;8.364;2022-12-07T03:15:22;5.00;99.90
12520;DHT22;6325;49.540;8.364;2022-12-07T03:17:55;5.50;99.90
12520;DHT22;6325;49.540;8.364;2022-12-07T03:20:25;5.20;99.90
12520;DHT22;6325;49.540;8.364;2022-12-07T03:22:53;5.60;99.90
12520;DHT22;6325;49.540;8.364;2022-12-07T03:25:21;5.00;99.90
12520;DHT22;6325;49.540;8.364;2022-12-07T03:27:52;5.90;99.90
12520;DHT22;6325;49.540;8.364;2022-12-07T03:30:26;5.10;99.90
12520;DHT22;6325;49.540;8.364;2022-12-07T03:32:59;5.20;99.90
12520;DHT22;6325;49.540;8.364;2022-12-07T03:35:29;5.40;99.90
12520;DHT22;6325;49.540;8.364;2022-12-07T03:38:00;5.20;99.90
12520;DHT22;6325;49.540;8.364;2022-12-07T03:40:32;5.10;99.90
12520;DHT22;6325;49.540;8.364;2022-12-07T03:43:00;5.10;99.90
12520;DHT22;6325;49.540;8.364;2022-12-07T03:45:40;5.10;99.90
12520;DHT22;6325;49.540;8.364;2022-12-07T03:48:13;5.40;99.90
12520;DHT22;6325;49.540;8.364;2022-12-07T03:50:50;5.30;99.90
12520;DHT22;6325;49.540;8.364;2022-12-07T03:53:23;5.50;99.90
12520;DHT22;6325;49.540;8.364;2022-12-07T03:55:52;5.40;99.90
12520;DHT22;6325;49.540;8.364;2022-12-07T03:58:22;5.10;99.90
12520;DHT22;6325;49.540;8.364;2022-12-07T04:00:51;5.30;99.90
12520;DHT22;6325;49.540;8.364;2022-12-07T04:03:18;5.20;99.90
12520;DHT22;6325;49.540;8.364;2022-12-07T04:05:45;5.10;99.90
12520;DHT22;6325;49.540;8.364;2022-12-07T04:08:12;5.50;99.90
12520;DHT22;6325;49.540;8.364;2022-12-07T04:10:39;5.30;99.90
12520;DHT22;6325;49.540;8.364;2022-12-07T04:13:06;5.00;99.90
12520;DHT22;6325;49.540;8.364;2022-12-07T04:15:33;5.50;99.90
12520;DHT22;6325;49.540;8.364;2022-12-07T04:18:01;5.60;99.90
12520;DHT22;6325;49.540;8.364;2022-12-07T04:20:28;5.70;99.90
12520;DHT22;6325;49.540;8.364;2022-12-07T04:22:55;5.40;99.90
12520;DHT22;6325;49.540;8.364;2022-12-07T04:25:22;5.40;99.90
12520;DHT22;6325;49.540;8.364;2022-12-07T04:27:49;5.20;99.90
12520;DHT22;6325;49.540;8.364;2022-12-07T04:30:16;5.20;99.90
12520;DHT22;6325;49.540;8.364;2022-12-07T04:32:43;5.40;99.90
12520;DHT22;6325;49.540;8.364;2022-12-07T04:35:11;5.30;99.90
12520;DHT22;6325;49.540;8.364;2022-12-07T04:37:39;5.20;99.90
12520;DHT22;6325;49.540;8.364;2022-12-07T04:40:09;4.80;99.90
12520;DHT22;6325;49.540;8.364;2022-12-07T04:42:36;5.70;99.90
12520;DHT22;6325;49.540;8.364;2022-12-07T04:45:04;5.30;99.90
12520;DHT22;6325;49.540;8.364;2022-12-07T04:47:31;5.80;99.90
12520;DHT22;6325;49.540;8.364;2022-12-07T04:49:58;4.70;99.90
12520;DHT22;6325;49.540;8.364;2022-12-07T04:52:26;5.20;99.90
12520;DHT22;6325;49.540;8.364;2022-12-07T04:54:53;5.20;99.90
12520;DHT22;6325;49.540;8.364;2022-12-07T04:57:20;5.20;99.90
12520;DHT22;6325;49.540;8.364;2022-12-07T04:59:47;5.30;99.90
12520;DHT22;6325;49.540;8.364;2022-12-07T05:02:14;5.80;99.90
12520;DHT22;6325;49.540;8.364;2022-12-07T05:04:41;5.50;99.90
12520;DHT22;6325;49.540;8.364;2022-12-07T05:07:09;5.80;99.90
12520;DHT22;6325;49.540;8.364;2022-12-07T05:09:38;4.90;99.90
12520;DHT22;6325;49.540;8.364;2022-12-07T05:12:07;4.80;99.90
12520;DHT22;6325;49.540;8.364;2022-12-07T05:14:33;5.80;99.90
12520;DHT22;6325;49.540;8.364;2022-12-07T05:17:00;5.50;99.90
12520;DHT22;6325;49.540;8.364;2022-12-07T05:19:27;5.30;99.90
12520;DHT22;6325;49.540;8.364;2022-12-07T05:21:54;5.60;99.90
12520;DHT22;6325;49.540;8.364;2022-12-07T05:24:23;4.70;99.90
12520;DHT22;6325;49.540;8.364;2022-12-07T05:26:51;5.70;99.90
12520;DHT22;6325;49.540;8.364;2022-12-07T05:29:18;5.70;99.90
12520;DHT22;6325;49.540;8.364;2022-12-07T05:31:45;5.30;99.90
12520;DHT22;6325;49.540;8.364;2022-12-07T05:34:12;5.20;99.90
12520;DHT22;6325;49.540;8.364;2022-12-07T05:36:40;5.90;99.90
12520;DHT22;6325;49.540;8.364;2022-12-07T05:39:07;5.40;99.90
12520;DHT22;6325;49.540;8.364;2022-12-07T05:41:35;5.30;99.90
12520;DHT22;6325;49.540;8.364;2022-12-07T05:44:20;5.40;99.90
12520;DHT22;6325;49.540;8.364;2022-12-07T05:46:47;5.50;99.90
12520;DHT22;6325;49.540;8.364;2022-12-07T05:49:14;5.50;99.90
12520;DHT22;6325;49.540;8.364;2022-12-07T05:51:42;5.80;99.90
12520;DHT22;6325;49.540;8.364;2022-12-07T05:54:08;5.10;99.90
12520;DHT22;6325;49.540;8.364;2022-12-07T05:56:35;5.30;99.90
12520;DHT22;6325;49.540;8.364;2022-12-07T05:59:03;5.60;99.90
12520;DHT22;6325;49.540;8.364;2022-12-07T06:01:50;5.60;99.90
12520;DHT22;6325;49.540;8.364;2022-12-07T06:04:18;5.70;99.90
12520;DHT22;6325;49.540;8.364;2022-12-07T06:06:44;5.40;99.90
12520;DHT22;6325;49.540;8.364;2022-12-07T06:09:12;5.70;99.90
12520;DHT22;6325;49.540;8.364;2022-12-07T06:11:39;4.90;99.90
12520;DHT22;6325;49.540;8.364;2022-12-07T06:14:23;5.80;99.90
12520;DHT22;6325;49.540;8.364;2022-12-07T06:16:52;5.70;99.90
12520;DHT22;6325;49.540;8.364;2022-12-07T06:19:18;6.00;99.90
12520;DHT22;6325;49.540;8.364;2022-12-07T06:21:45;5.50;99.90
12520;DHT22;6325;49.540;8.364;2022-12-07T06:24:13;5.40;99.90
12520;DHT22;6325;49.540;8.364;2022-12-07T06:26:41;5.70;99.90
12520;DHT22;6325;49.540;8.364;2022-12-07T06:29:08;5.70;99.90
12520;DHT22;6325;49.540;8.364;2022-12-07T06:31:36;5.50;99.90
12520;DHT22;6325;49.540;8.364;2022-12-07T06:34:06;5.50;99.90
12520;DHT22;6325;49.540;8.364;2022-12-07T06:36:34;5.50;99.90
12520;DHT22;6325;49.540;8.364;2022-12-07T06:39:00;4.70;99.90
12520;DHT22;6325;49.540;8.364;2022-12-07T06:41:28;5.40;99.90
12520;DHT22;6325;49.540;8.364;2022-12-07T06:43:55;5.40;99.90
12520;DHT22;6325;49.540;8.364;2022-12-07T06:46:22;5.40;99.90
12520;DHT22;6325;49.540;8.364;2022-12-07T06:48:49;5.90;99.90
12520;DHT22;6325;49.540;8.364;2022-12-07T06:51:18;5.70;99.90
12520;DHT22;6325;49.540;8.364;2022-12-07T06:53:44;5.60;99.90
12520;DHT22;6325;49.540;8.364;2022-12-07T06:56:11;6.10;99.90
12520;DHT22;6325;49.540;8.364;2022-12-07T06:58:39;5.00;99.90
12520;DHT22;6325;49.540;8.364;2022-12-07T07:01:09;5.50;99.90
12520;DHT22;6325;49.540;8.364;2022-12-07T07:03:36;5.40;99.90
12520;DHT22;6325;49.540;8.364;2022-12-07T07:06:04;6.00;99.90
12520;DHT22;6325;49.540;8.364;2022-12-07T07:08:32;5.50;99.90
12520;DHT22;6325;49.540;8.364;2022-12-07T07:10:59;5.90;99.90
12520;DHT22;6325;49.540;8.364;2022-12-07T07:13:26;5.50;99.90
12520;DHT22;6325;49.540;8.364;2022-12-07T07:15:53;5.50;99.90
12520;DHT22;6325;49.540;8.364;2022-12-07T07:18:21;5.90;99.90
12520;DHT22;6325;49.540;8.364;2022-12-07T07:20:49;5.70;99.90
12520;DHT22;6325;49.540;8.364;2022-12-07T07:23:16;6.10;99.90
12520;DHT22;6325;49.540;8.364;2022-12-07T07:25:44;5.50;99.90
12520;DHT22;6325;49.540;8.364;2022-12-07T07:28:11;5.60;99.90
12520;DHT22;6325;49.540;8.364;2022-12-07T07:30:38;5.60;99.90
12520;DHT22;6325;49.540;8.364;2022-12-07T07:33:05;6.10;99.90
12520;DHT22;6325;49.540;8.364;2022-12-07T07:35:33;5.90;99.90
12520;DHT22;6325;49.540;8.364;2022-12-07T07:38:01;6.10;99.90
12520;DHT22;6325;49.540;8.364;2022-12-07T07:40:28;5.20;99.90
12520;DHT22;6325;49.540;8.364;2022-12-07T07:42:57;5.30;99.90
12520;DHT22;6325;49.540;8.364;2022-12-07T07:45:25;5.70;99.90
12520;DHT22;6325;49.540;8.364;2022-12-07T07:47:53;6.00;99.90
12520;DHT22;6325;49.540;8.364;2022-12-07T07:50:20;6.30;99.90
12520;DHT22;6325;49.540;8.364;2022-12-07T07:52:47;6.30;99.90
12520;DHT22;6325;49.540;8.364;2022-12-07T07:55:14;5.80;99.90
12520;DHT22;6325;49.540;8.364;2022-12-07T07:57:41;6.00;99.90
12520;DHT22;6325;49.540;8.364;2022-12-07T08:00:12;5.80;99.90
12520;DHT22;6325;49.540;8.364;2022-12-07T08:02:39;6.20;99.90
12520;DHT22;6325;49.540;8.364;2022-12-07T08:05:07;5.80;99.90
12520;DHT22;6325;49.540;8.364;2022-12-07T08:07:34;6.50;99.90
12520;DHT22;6325;49.540;8.364;2022-12-07T08:10:01;6.00;99.90
12520;DHT22;6325;49.540;8.364;2022-12-07T08:12:28;6.40;99.90
12520;DHT22;6325;49.540;8.364;2022-12-07T08:14:55;6.00;99.90
12520;DHT22;6325;49.540;8.364;2022-12-07T08:17:23;6.70;99.90
12520;DHT22;6325;49.540;8.364;2022-12-07T08:19:50;6.40;99.90
12520;DHT22;6325;49.540;8.364;2022-12-07T08:22:17;6.10;99.90
12520;DHT22;6325;49.540;8.364;2022-12-07T08:24:44;6.10;99.90
12520;DHT22;6325;49.540;8.364;2022-12-07T08:27:11;6.30;99.90
12520;DHT22;6325;49.540;8.364;2022-12-07T08:29:38;6.10;99.90
12520;DHT22;6325;49.540;8.364;2022-12-07T08:32:04;6.60;99.90
12520;DHT22;6325;49.540;8.364;2022-12-07T08:34:33;6.40;99.90
12520;DHT22;6325;49.540;8.364;2022-12-07T08:37:00;6.50;99.90
12520;DHT22;6325;49.540;8.364;2022-12-07T08:39:27;6.40;99.90
12520;DHT22;6325;49.540;8.364;2022-12-07T08:41:55;6.20;99.90
12520;DHT22;6325;49.540;8.364;2022-12-07T08:44:22;6.20;99.90
12520;DHT22;6325;49.540;8.364;2022-12-07T08:46:51;6.30;99.90
12520;DHT22;6325;49.540;8.364;2022-12-07T08:49:24;6.30;99.90
12520;DHT22;6325;49.540;8.364;2022-12-07T08:51:55;6.40;99.90
12520;DHT22;6325;49.540;8.364;2022-12-07T08:54:22;6.70;99.90
12520;DHT22;6325;49.540;8.364;2022-12-07T08:56:49;6.40;99.90
12520;DHT22;6325;49.540;8.364;2022-12-07T08:59:17;6.20;99.90
12520;DHT22;6325;49.540;8.364;2022-12-07T09:01:46;6.90;99.90
12520;DHT22;6325;49.540;8.364;2022-12-07T09:04:13;7.00;99.90
12520;DHT22;6325;49.540;8.364;2022-12-07T09:06:42;6.60;99.90
12520;DHT22;6325;49.540;8.364;2022-12-07T09:09:11;6.90;99.90
12520;DHT22;6325;49.540;8.364;2022-12-07T09:11:39;7.20;99.90
12520;DHT22;6325;49.540;8.364;2022-12-07T09:14:06;7.30;99.90
12520;DHT22;6325;49.540;8.364;2022-12-07T09:16:33;6.30;99.90
12520;DHT22;6325;49.540;8.364;2022-12-07T09:19:00;6.70;99.90
12520;DHT22;6325;49.540;8.364;2022-12-07T09:21:27;6.80;99.90
12520;DHT22;6325;49.540;8.364;2022-12-07T09:23:53;7.20;99.90
12520;DHT22;6325;49.540;8.364;2022-12-07T09:26:22;7.00;99.90
12520;DHT22;6325;49.540;8.364;2022-12-07T09:28:49;6.90;99.90
12520;DHT22;6325;49.540;8.364;2022-12-07T09:31:15;7.00;99.90
12520;DHT22;6325;49.540;8.364;2022-12-07T09:33:42;7.40;99.90
12520;DHT22;6325;49.540;8.364;2022-12-07T09:36:09;7.20;99.90
12520;DHT22;6325;49.540;8.364;2022-12-07T09:38:36;7.50;99.90
12520;DHT22;6325;49.540;8.364;2022-12-07T09:41:07;7.10;99.90
12520;DHT22;6325;49.540;8.364;2022-12-07T09:43:36;7.00;99.90
12520;DHT22;6325;49.540;8.364;2022-12-07T09:46:05;7.20;99.90
12520;DHT22;6325;49.540;8.364;2022-12-07T09:48:34;7.40;99.90
12520;DHT22;6325;49.540;8.364;2022-12-07T09:51:03;7.30;99.90
12520;DHT22;6325;49.540;8.364;2022-12-07T09:53:39;7.60;99.90
12520;DHT22;6325;49.540;8.364;2022-12-07T09:56:10;7.70;99.90
12520;DHT22;6325;49.540;8.364;2022-12-07T09:58:39;6.90;99.90
12520;DHT22;6325;49.540;8.364;2022-12-07T10:01:11;7.30;99.90
12520;DHT22;6325;49.540;8.364;2022-12-07T10:03:48;7.40;99.90
12520;DHT22;6325;49.540;8.364;2022-12-07T10:06:16;7.40;99.90
12520;DHT22;6325;49.540;8.364;2022-12-07T10:08:43;6.80;99.90
12520;DHT22;6325;49.540;8.364;2022-12-07T10:11:11;7.20;99.90
12520;DHT22;6325;49.540;8.364;2022-12-07T10:13:43;7.40;99.90
12520;DHT22;6325;49.540;8.364;2022-12-07T10:16:38;6.50;99.90
12520;DHT22;6325;49.540;8.364;2022-12-07T10:19:21;7.30;99.90
12520;DHT22;6325;49.540;8.364;2022-12-07T10:22:13;7.20;99.90
12520;DHT22;6325;49.540;8.364;2022-12-07T10:24:42;7.40;99.90
12520;DHT22;6325;49.540;8.364;2022-12-07T10:27:18;7.20;99.90
12520;DHT22;6325;49.540;8.364;2022-12-07T10:29:50;6.90;99.90
12520;DHT22;6325;49.540;8.364;2022-12-07T10:32:29;6.90;99.90
12520;DHT22;6325;49.540;8.364;2022-12-07T10:35:19;6.90;99.90
12520;DHT22;6325;49.540;8.364;2022-12-07T10:37:46;7.50;99.90
12520;DHT22;6325;49.540;8.364;2022-12-07T10:40:26;6.90;99.90
12520;DHT22;6325;49.540;8.364;2022-12-07T10:43:05;6.30;99.90
12520;DHT22;6325;49.540;8.364;2022-12-07T10:45:35;6.60;99.90
12520;DHT22;6325;49.540;8.364;2022-12-07T10:48:11;6.70;99.90
12520;DHT22;6325;49.540;8.364;2022-12-07T10:50:52;7.60;99.90
12520;DHT22;6325;49.540;8.364;2022-12-07T10:53:41;7.30;99.90
12520;DHT22;6325;49.540;8.364;2022-12-07T10:56:35;7.40;99.90
12520;DHT22;6325;49.540;8.364;2022-12-07T10:59:30;7.80;99.90
12520;DHT22;6325;49.540;8.364;2022-12-07T11:02:15;7.50;99.90
12520;DHT22;6325;49.540;8.364;2022-12-07T11:04:59;7.50;99.90
12520;DHT22;6325;49.540;8.364;2022-12-07T11:07:37;7.60;99.90
12520;DHT22;6325;49.540;8.364;2022-12-07T11:10:09;7.10;99.90
12520;DHT22;6325;49.540;8.364;2022-12-07T11:12:51;7.70;99.90
12520;DHT22;6325;49.540;8.364;2022-12-07T11:15:24;7.70;99.90
12520;DHT22;6325;49.540;8.364;2022-12-07T11:18:00;7.50;99.90
12520;DHT22;6325;49.540;8.364;2022-12-07T11:20:39;7.60;99.90
12520;DHT22;6325;49.540;8.364;2022-12-07T11:23:16;7.70;99.90
12520;DHT22;6325;49.540;8.364;2022-12-07T11:25:50;7.00;99.90
12520;DHT22;6325;49.540;8.364;2022-12-07T11:28:29;7.80;99.90
12520;DHT22;6325;49.540;8.364;2022-12-07T11:31:05;7.60;99.90
12520;DHT22;6325;49.540;8.364;2022-12-07T11:33:41;7.50;99.90
12520;DHT22;6325;49.540;8.364;2022-12-07T11:36:18;7.60;99.90
12520;DHT22;6325;49.540;8.364;2022-12-07T11:38:57;7.20;99.90
12520;DHT22;6325;49.540;8.364;2022-12-07T11:41:28;7.50;99.90
12520;DHT22;6325;49.540;8.364;2022-12-07T11:44:06;7.80;99.90
12520;DHT22;6325;49.540;8.364;2022-12-07T11:46:43;7.60;99.90
12520;DHT22;6325;49.540;8.364;2022-12-07T11:49:17;8.40;99.90
12520;DHT22;6325;49.540;8.364;2022-12-07T11:51:53;8.80;99.90
12520;DHT22;6325;49.540;8.364;2022-12-07T11:54:28;8.30;99.90
12520;DHT22;6325;49.540;8.364;2022-12-07T11:57:04;8.60;99.90
12520;DHT22;6325;49.540;8.364;2022-12-07T11:59:39;8.60;99.90
12520;DHT22;6325;49.540;8.364;2022-12-07T12:02:14;7.90;99.90
12520;DHT22;6325;49.540;8.364;2022-12-07T12:04:51;8.30;99.90
12520;DHT22;6325;49.540;8.364;2022-12-07T12:07:22;7.40;99.90
12520;DHT22;6325;49.540;8.364;2022-12-07T12:09:53;7.80;99.90
12520;DHT22;6325;49.540;8.364;2022-12-07T12:12:40;7.50;99.90
12520;DHT22;6325;49.540;8.364;2022-12-07T12:15:22;7.80;99.90
12520;DHT22;6325;49.540;8.364;2022-12-07T12:18:10;7.80;99.90
12520;DHT22;6325;49.540;8.364;2022-12-07T12:20:45;7.90;99.90
12520;DHT22;6325;49.540;8.364;2022-12-07T12:23:18;7.20;99.90
12520;DHT22;6325;49.540;8.364;2022-12-07T12:25:48;8.10;99.90
12520;DHT22;6325;49.540;8.364;2022-12-07T12:28:22;7.90;99.90
12520;DHT22;6325;49.540;8.364;2022-12-07T12:31:06;7.70;99.90
12520;DHT22;6325;49.540;8.364;2022-12-07T12:33:35;8.00;99.90
12520;DHT22;6325;49.540;8.364;2022-12-07T12:36:25;7.80;99.90
12520;DHT22;6325;49.540;8.364;2022-12-07T12:39:09;7.80;99.90
12520;DHT22;6325;49.540;8.364;2022-12-07T12:41:56;7.90;99.90
12520;DHT22;6325;49.540;8.364;2022-12-07T12:47:56;7.60;99.90
12520;DHT22;6325;49.540;8.364;2022-12-07T12:50:26;7.60;99.90
12520;DHT22;6325;49.540;8.364;2022-12-07T12:53:22;7.60;99.90
12520;DHT22;6325;49.540;8.364;2022-12-07T12:56:13;7.50;99.90
12520;DHT22;6325;49.540;8.364;2022-12-07T12:58:46;8.20;99.90
12520;DHT22;6325;49.540;8.364;2022-12-07T13:01:44;8.20;99.90
12520;DHT22;6325;49.540;8.364;2022-12-07T13:06:59;8.20;99.90
12520;DHT22;6325;49.540;8.364;2022-12-07T13:09:29;7.90;99.90
12520;DHT22;6325;49.540;8.364;2022-12-07T13:12:01;7.80;99.90
12520;DHT22;6325;49.540;8.364;2022-12-07T13:14:55;8.10;99.90
12520;DHT22;6325;49.540;8.364;2022-12-07T13:17:57;7.80;99.90
12520;DHT22;6325;49.540;8.364;2022-12-07T13:23:31;8.20;99.90
12520;DHT22;6325;49.540;8.364;2022-12-07T13:26:12;7.80;99.90
12520;DHT22;6325;49.540;8.364;2022-12-07T13:28:42;7.90;99.90
12520;DHT22;6325;49.540;8.364;2022-12-07T13:31:14;7.60;99.90
12520;DHT22;6325;49.540;8.364;2022-12-07T13:33:43;8.20;99.90
12520;DHT22;6325;49.540;8.364;2022-12-07T13:36:17;7.90;99.90
12520;DHT22;6325;49.540;8.364;2022-12-07T13:38:50;8.20;99.90
12520;DHT22;6325;49.540;8.364;2022-12-07T13:41:20;8.10;99.90
12520;DHT22;6325;49.540;8.364;2022-12-07T13:43:50;8.20;99.90
12520;DHT22;6325;49.540;8.364;2022-12-07T13:46:21;7.90;99.90
12520;DHT22;6325;49.540;8.364;2022-12-07T13:48:51;8.10;99.90
12520;DHT22;6325;49.540;8.364;2022-12-07T13:51:20;7.20;99.90
12520;DHT22;6325;49.540;8.364;2022-12-07T13:53:49;7.70;99.90
12520;DHT22;6325;49.540;8.364;2022-12-07T13:56:20;7.90;99.90
12520;DHT22;6325;49.540;8.364;2022-12-07T13:58:47;7.60;99.90
12520;DHT22;6325;49.540;8.364;2022-12-07T14:01:14;7.20;99.90
12520;DHT22;6325;49.540;8.364;2022-12-07T14:03:41;7.90;99.90
12520;DHT22;6325;49.540;8.364;2022-12-07T14:06:19;7.80;99.90
12520;DHT22;6325;49.540;8.364;2022-12-07T14:08:46;7.60;99.90
12520;DHT22;6325;49.540;8.364;2022-12-07T14:11:16;7.50;99.90
12520;DHT22;6325;49.540;8.364;2022-12-07T14:13:59;7.80;99.90
12520;DHT22;6325;49.540;8.364;2022-12-07T14:16:29;7.30;99.90
12520;DHT22;6325;49.540;8.364;2022-12-07T14:18:57;7.70;99.90
12520;DHT22;6325;49.540;8.364;2022-12-07T14:21:28;7.30;99.90
12520;DHT22;6325;49.540;8.364;2022-12-07T14:24:11;7.00;99.90
12520;DHT22;6325;49.540;8.364;2022-12-07T14:26:40;7.60;99.90
12520;DHT22;6325;49.540;8.364;2022-12-07T14:29:21;7.70;99.90
12520;DHT22;6325;49.540;8.364;2022-12-07T14:31:49;7.60;99.90
12520;DHT22;6325;49.540;8.364;2022-12-07T14:34:16;7.60;99.90
12520;DHT22;6325;49.540;8.364;2022-12-07T14:36:43;7.60;99.90
12520;DHT22;6325;49.540;8.364;2022-12-07T14:39:10;7.40;99.90
12520;DHT22;6325;49.540;8.364;2022-12-07T14:41:37;8.00;99.90
12520;DHT22;6325;49.540;8.364;2022-12-07T14:44:21;7.30;99.90
12520;DHT22;6325;49.540;8.364;2022-12-07T14:46:49;7.80;99.90
12520;DHT22;6325;49.540;8.364;2022-12-07T14:49:16;7.90;99.90
12520;DHT22;6325;49.540;8.364;2022-12-07T14:51:45;6.80;99.90
12520;DHT22;6325;49.540;8.364;2022-12-07T14:54:16;7.60;99.90
12520;DHT22;6325;49.540;8.364;2022-12-07T14:56:43;7.80;99.90
12520;DHT22;6325;49.540;8.364;2022-12-07T14:59:11;6.80;99.90
12520;DHT22;6325;49.540;8.364;2022-12-07T15:01:40;7.70;99.90
12520;DHT22;6325;49.540;8.364;2022-12-07T15:04:06;7.60;99.90
12520;DHT22;6325;49.540;8.364;2022-12-07T15:06:34;7.30;99.90
12520;DHT22;6325;49.540;8.364;2022-12-07T15:09:03;7.10;99.90
12520;DHT22;6325;49.540;8.364;2022-12-07T15:11:30;7.20;99.90
12520;DHT22;6325;49.540;8.364;2022-12-07T15:13:57;7.60;99.90
12520;DHT22;6325;49.540;8.364;2022-12-07T15:16:38;7.20;99.90
12520;DHT22;6325;49.540;8.364;2022-12-07T15:19:12;7.20;99.90
12520;DHT22;6325;49.540;8.364;2022-12-07T15:21:39;7.20;99.90
12520;DHT22;6325;49.540;8.364;2022-12-07T15:24:08;6.80;99.90
12520;DHT22;6325;49.540;8.364;2022-12-07T15:26:35;7.70;99.90
12520;DHT22;6325;49.540;8.364;2022-12-07T15:29:02;7.10;99.90
12520;DHT22;6325;49.540;8.364;2022-12-07T15:31:30;7.20;99.90
12520;DHT22;6325;49.540;8.364;2022-12-07T15:33:57;7.60;99.90
12520;DHT22;6325;49.540;8.364;2022-12-07T15:36:28;6.80;99.90
12520;DHT22;6325;49.540;8.364;2022-12-07T15:38:57;7.50;99.90
12520;DHT22;6325;49.540;8.364;2022-12-07T15:41:24;6.50;99.90
12520;DHT22;6325;49.540;8.364;2022-12-07T15:43:53;7.20;99.90
12520;DHT22;6325;49.540;8.364;2022-12-07T15:46:38;7.40;99.90
12520;DHT22;6325;49.540;8.364;2022-12-07T15:49:08;7.10;99.90
12520;DHT22;6325;49.540;8.364;2022-12-07T15:51:37;7.50;99.90
12520;DHT22;6325;49.540;8.364;2022-12-07T15:54:04;7.00;99.90
12520;DHT22;6325;49.540;8.364;2022-12-07T15:56:31;6.50;99.90
12520;DHT22;6325;49.540;8.364;2022-12-07T15:58:58;7.20;99.90
12520;DHT22;6325;49.540;8.364;2022-12-07T16:01:25;7.40;99.90
12520;DHT22;6325;49.540;8.364;2022-12-07T16:03:52;6.90;99.90
12520;DHT22;6325;49.540;8.364;2022-12-07T16:06:19;7.10;99.90
12520;DHT22;6325;49.540;8.364;2022-12-07T16:08:47;7.00;99.90
12520;DHT22;6325;49.540;8.364;2022-12-07T16:11:14;6.70;99.90
12520;DHT22;6325;49.540;8.364;2022-12-07T16:13:41;7.30;99.90
12520;DHT22;6325;49.540;8.364;2022-12-07T16:16:11;6.70;99.90
12520;DHT22;6325;49.540;8.364;2022-12-07T16:18:39;6.60;99.90
12520;DHT22;6325;49.540;8.364;2022-12-07T16:21:06;6.30;99.90
12520;DHT22;6325;49.540;8.364;2022-12-07T16:23:33;6.00;99.90
12520;DHT22;6325;49.540;8.364;2022-12-07T16:26:10;6.10;99.90
12520;DHT22;6325;49.540;8.364;2022-12-07T16:28:37;7.00;99.90
12520;DHT22;6325;49.540;8.364;2022-12-07T16:31:05;6.30;99.90
12520;DHT22;6325;49.540;8.364;2022-12-07T16:33:34;7.00;99.90
12520;DHT22;6325;49.540;8.364;2022-12-07T16:36:01;6.20;99.90